createdAt,value
2018-09-28T00:01:42.052Z,20.10
2018-09-28T00:04:16.283Z,20.10
2018-09-28T00:06:50.116Z,20.10
2018-09-28T00:09:22.824Z,20.10
2018-09-28T00:11:56.097Z,20.10
2018-09-28T00:14:30.390Z,20.00
2018-09-28T00:17:03.526Z,20.00
2018-09-28T00:19:37.190Z,19.90
2018-09-28T00:22:10.925Z,19.90
2018-09-28T00:24:44.829Z,19.90
2018-09-28T00:27:17.465Z,19.80
2018-09-28T00:29:51.953Z,19.80
2018-09-28T00:33:54.688Z,19.70
2018-09-28T00:36:27.711Z,19.70
2018-09-28T00:39:11.293Z,19.60
2018-09-28T00:41:45.398Z,19.60
2018-09-28T00:44:18.948Z,19.60
2018-09-28T00:46:51.843Z,19.60
2018-09-28T00:49:25.037Z,19.50
2018-09-28T00:51:59.569Z,19.50
2018-09-28T00:54:35.933Z,19.50
2018-09-28T00:57:10.455Z,19.50
2018-09-28T00:59:43.814Z,19.40
2018-09-28T01:02:17.973Z,19.40
2018-09-28T01:04:50.780Z,19.40
2018-09-28T01:07:24.205Z,19.40
2018-09-28T01:09:57.276Z,19.40
2018-09-28T01:12:31.883Z,19.40
2018-09-28T01:15:05.610Z,19.30
2018-09-28T01:17:40.639Z,19.30
2018-09-28T01:20:19.198Z,19.30
2018-09-28T01:22:53.158Z,19.30
2018-09-28T01:25:43.385Z,19.30
2018-09-28T01:28:19.832Z,19.40
2018-09-28T01:30:53.639Z,19.40
2018-09-28T01:33:27.570Z,19.40
2018-09-28T01:36:02.691Z,19.30
2018-09-28T01:38:36.046Z,19.30
2018-09-28T01:41:13.938Z,19.30
2018-09-28T01:43:51.797Z,19.30
2018-09-28T01:46:25.242Z,19.30
2018-09-28T01:49:01.390Z,19.30
2018-09-28T01:51:34.715Z,19.30
2018-09-28T01:54:09.313Z,19.20
2018-09-28T01:59:39.262Z,19.30
2018-09-28T02:02:12.034Z,19.30
2018-09-28T02:04:44.735Z,19.30
2018-09-28T02:07:18.489Z,19.20
2018-09-28T02:09:54.302Z,19.20
2018-09-28T02:12:27.818Z,19.30
2018-09-28T02:15:06.697Z,19.30
2018-09-28T02:17:40.834Z,19.30
2018-09-28T02:20:13.785Z,19.20
2018-09-28T02:22:47.589Z,19.20
2018-09-28T02:25:20.215Z,19.20
2018-09-28T02:27:53.335Z,19.10
2018-09-28T02:30:26.208Z,19.10
2018-09-28T02:33:06.908Z,19.10
2018-09-28T02:35:39.738Z,19.10
2018-09-28T02:38:12.699Z,19.00
2018-09-28T02:40:48.995Z,19.10
2018-09-28T02:43:25.443Z,19.10
2018-09-28T02:46:01.896Z,19.00
2018-09-28T02:48:42.431Z,19.00
2018-09-28T02:51:22.593Z,19.00
2018-09-28T02:53:55.767Z,19.00
2018-09-28T02:56:29.720Z,19.00
2018-09-28T02:59:03.296Z,18.90
2018-09-28T03:01:36.865Z,19.00
2018-09-28T03:04:16.074Z,18.90
2018-09-28T03:06:48.548Z,18.90
2018-09-28T03:09:21.304Z,18.90
2018-09-28T03:11:54.325Z,18.90
2018-09-28T03:14:27.346Z,18.90
2018-09-28T03:17:00.565Z,18.90
2018-09-28T03:19:32.938Z,19.00
2018-09-28T03:22:05.929Z,18.90
2018-09-28T03:24:38.429Z,18.90
2018-09-28T03:27:13.374Z,18.90
2018-09-28T03:29:45.829Z,18.90
2018-09-28T03:32:23.193Z,18.90
2018-09-28T03:34:55.853Z,18.90
2018-09-28T03:37:28.406Z,18.90
2018-09-28T03:40:00.971Z,18.90
2018-09-28T03:42:34.525Z,18.90
2018-09-28T03:45:07.420Z,18.90
2018-09-28T03:47:41.820Z,18.90
2018-09-28T03:50:15.749Z,18.90
2018-09-28T03:52:56.208Z,18.90
2018-09-28T03:55:28.608Z,18.80
2018-09-28T03:58:09.394Z,18.80
2018-09-28T04:00:44.379Z,18.80
2018-09-28T04:03:17.058Z,19.00
2018-09-28T04:05:49.660Z,19.00
2018-09-28T04:08:22.904Z,19.00
2018-09-28T04:10:55.887Z,19.10
2018-09-28T04:13:28.739Z,19.10
2018-09-28T04:16:01.280Z,19.00
2018-09-28T04:18:34.115Z,19.10
2018-09-28T04:21:06.668Z,19.10
2018-09-28T04:23:39.404Z,19.00
2018-09-28T04:26:12.060Z,19.10
2018-09-28T04:28:46.020Z,19.10
2018-09-28T04:31:18.637Z,19.10
2018-09-28T04:33:51.123Z,19.10
2018-09-28T04:36:23.578Z,19.20
2018-09-28T04:38:56.298Z,19.20
2018-09-28T04:41:29.066Z,19.10
2018-09-28T04:44:01.988Z,19.00
2018-09-28T04:46:34.753Z,19.10
2018-09-28T04:49:07.513Z,19.10
2018-09-28T04:51:40.394Z,19.00
2018-09-28T04:54:13.761Z,19.10
2018-09-28T04:56:46.219Z,19.20
2018-09-28T04:59:24.476Z,19.20
2018-09-28T05:01:57.194Z,19.20
2018-09-28T05:04:29.720Z,19.20
2018-09-28T05:07:08.088Z,19.10
2018-09-28T05:09:40.531Z,19.30
2018-09-28T05:12:14.636Z,19.10
2018-09-28T05:14:47.374Z,19.10
2018-09-28T05:17:22.281Z,19.00
2018-09-28T05:19:54.840Z,19.10
2018-09-28T05:22:27.345Z,19.10
2018-09-28T05:24:59.880Z,19.10
2018-09-28T05:27:39.097Z,19.00
2018-09-28T05:30:12.137Z,19.00
2018-09-28T05:32:53.465Z,19.00
2018-09-28T05:35:26.225Z,19.00
2018-09-28T05:37:59.106Z,18.90
2018-09-28T05:40:31.659Z,18.90
2018-09-28T05:43:04.542Z,18.80
2018-09-28T05:45:38.560Z,18.90
2018-09-28T05:48:14.818Z,18.90
2018-09-28T05:50:47.643Z,18.90
2018-09-28T05:53:20.750Z,18.90
2018-09-28T05:55:53.353Z,18.80
2018-09-28T05:58:30.349Z,18.80
2018-09-28T06:01:07.573Z,18.80
2018-09-28T06:03:50.079Z,18.70
2018-09-28T06:06:22.878Z,18.70
2018-09-28T06:08:55.373Z,18.80
2018-09-28T06:11:28.100Z,18.80
2018-09-28T06:14:08.048Z,18.70
2018-09-28T06:16:40.860Z,18.80
2018-09-28T06:19:18.247Z,18.80
2018-09-28T06:21:51.119Z,18.70
2018-09-28T06:24:23.813Z,18.70
2018-09-28T06:26:56.559Z,18.70
2018-09-28T06:29:28.954Z,18.60
2018-09-28T06:32:03.144Z,18.60
2018-09-28T06:34:38.087Z,18.60
2018-09-28T06:37:12.028Z,18.60
2018-09-28T06:39:45.283Z,18.50
2018-09-28T06:42:18.114Z,18.50
2018-09-28T06:44:50.738Z,18.50
2018-09-28T06:47:23.519Z,18.50
2018-09-28T06:49:56.253Z,18.50
2018-09-28T06:52:31.254Z,18.70
2018-09-28T06:55:05.299Z,18.60
2018-09-28T06:57:40.009Z,18.60
2018-09-28T07:00:17.252Z,18.70
2018-09-28T07:02:51.180Z,18.70
2018-09-28T07:05:23.690Z,18.70
2018-09-28T07:07:56.132Z,18.70
2018-09-28T07:10:34.661Z,18.70
2018-09-28T07:13:06.989Z,18.70
2018-09-28T07:15:39.444Z,18.70
2018-09-28T07:18:12.391Z,18.60
2018-09-28T07:20:45.005Z,18.60
2018-09-28T07:23:17.744Z,18.60
2018-09-28T07:25:50.856Z,18.60
2018-09-28T07:28:23.604Z,18.60
2018-09-28T07:30:56.286Z,18.60
2018-09-28T07:33:29.518Z,18.60
2018-09-28T07:36:02.186Z,18.60
2018-09-28T07:38:35.492Z,18.60
2018-09-28T07:41:11.002Z,18.60
2018-09-28T07:43:43.438Z,18.70
2018-09-28T07:46:15.946Z,18.70
2018-09-28T07:48:48.556Z,18.70
2018-09-28T07:51:21.096Z,18.60
2018-09-28T07:54:00.374Z,18.60
2018-09-28T07:56:33.246Z,18.60
2018-09-28T07:59:05.842Z,18.60
2018-09-28T08:01:40.536Z,18.60
2018-09-28T08:04:13.208Z,18.60
2018-09-28T08:06:45.630Z,18.60
2018-09-28T08:09:17.976Z,18.50
2018-09-28T08:11:50.371Z,18.50
2018-09-28T08:14:22.981Z,18.40
2018-09-28T08:16:55.469Z,18.40
2018-09-28T08:19:28.378Z,18.40
2018-09-28T08:22:00.757Z,18.40
2018-09-28T08:24:33.265Z,18.30
2018-09-28T08:27:05.944Z,18.30
2018-09-28T08:29:38.803Z,18.30
2018-09-28T08:32:11.460Z,18.20
2018-09-28T08:34:44.367Z,18.20
2018-09-28T08:37:16.864Z,18.20
2018-09-28T08:41:18.564Z,18.10
2018-09-28T08:43:50.975Z,18.10
2018-09-28T08:46:23.697Z,18.10
2018-09-28T08:48:56.259Z,18.10
2018-09-28T08:51:28.822Z,18.10
2018-09-28T08:54:01.284Z,18.10
2018-09-28T08:56:38.852Z,18.10
2018-09-28T08:59:11.546Z,18.20
2018-09-28T09:01:45.082Z,18.20
2018-09-28T09:04:17.930Z,18.20
2018-09-28T09:06:51.217Z,18.20
2018-09-28T09:09:23.687Z,18.10
2018-09-28T09:11:56.805Z,18.20
2018-09-28T09:14:35.543Z,18.20
2018-09-28T09:17:08.298Z,18.20
2018-09-28T09:19:40.986Z,18.20
2018-09-28T09:22:13.407Z,18.10
2018-09-28T09:24:46.012Z,18.10
2018-09-28T09:27:18.982Z,18.10
2018-09-28T09:29:51.527Z,18.10
2018-09-28T09:32:30.668Z,18.20
2018-09-28T09:35:03.607Z,18.10
2018-09-28T09:37:37.012Z,18.10
2018-09-28T09:40:09.492Z,18.10
2018-09-28T09:42:42.710Z,18.20
2018-09-28T09:45:15.237Z,18.20
2018-09-28T09:47:47.823Z,18.20
2018-09-28T09:50:22.982Z,18.20
2018-09-28T09:52:55.597Z,18.20
2018-09-28T09:55:35.828Z,18.20
2018-09-28T09:58:08.623Z,18.30
2018-09-28T10:00:50.168Z,18.30
2018-09-28T10:03:27.037Z,18.30
2018-09-28T10:05:59.883Z,18.30
2018-09-28T10:08:32.790Z,18.30
2018-09-28T10:11:05.176Z,18.30
2018-09-28T10:13:37.624Z,18.30
2018-09-28T10:16:10.395Z,18.30
2018-09-28T10:18:43.598Z,18.40
2018-09-28T10:21:16.203Z,18.40
2018-09-28T10:23:48.686Z,18.30
2018-09-28T10:26:21.133Z,18.30
2018-09-28T10:28:53.532Z,18.30
2018-09-28T10:31:26.221Z,18.20
2018-09-28T10:34:04.191Z,18.20
2018-09-28T10:36:38.289Z,18.20
2018-09-28T10:39:12.736Z,18.20
2018-09-28T10:41:50.229Z,18.20
2018-09-28T10:44:22.771Z,18.20
2018-09-28T10:46:55.408Z,18.20
2018-09-28T10:49:28.286Z,18.20
2018-09-28T10:52:01.071Z,18.20
2018-09-28T10:54:33.951Z,18.20
2018-09-28T10:57:06.369Z,18.30
2018-09-28T10:59:40.286Z,18.30
2018-09-28T11:02:12.940Z,18.30
2018-09-28T11:04:45.955Z,18.40
2018-09-28T11:07:19.310Z,18.30
2018-09-28T11:09:51.899Z,18.40
2018-09-28T11:12:30.904Z,18.40
2018-09-28T11:15:10.134Z,18.40
2018-09-28T11:17:42.667Z,18.40
2018-09-28T11:20:15.415Z,18.40
2018-09-28T11:22:54.273Z,18.40
2018-09-28T11:25:27.072Z,18.40
2018-09-28T11:27:59.490Z,18.40
2018-09-28T11:30:31.973Z,18.40
2018-09-28T11:33:04.966Z,18.40
2018-09-28T11:35:37.809Z,18.40
2018-09-28T11:38:10.131Z,18.40
2018-09-28T11:40:42.603Z,18.50
2018-09-28T11:43:15.129Z,18.50
2018-09-28T11:45:47.819Z,18.40
2018-09-28T11:48:20.440Z,18.50
2018-09-28T11:50:53.038Z,18.40
2018-09-28T11:53:26.191Z,18.40
2018-09-28T11:55:58.911Z,18.50
2018-09-28T11:58:31.415Z,18.60
2018-09-28T12:01:04.820Z,18.60
2018-09-28T12:03:43.066Z,18.60
2018-09-28T12:06:20.594Z,18.50
2018-09-28T12:08:53.473Z,18.50
2018-09-28T12:11:26.167Z,18.40
2018-09-28T12:13:58.756Z,18.40
2018-09-28T12:16:32.247Z,18.40
2018-09-28T12:19:05.014Z,18.30
2018-09-28T12:21:37.850Z,18.30
2018-09-28T12:24:10.708Z,18.30
2018-09-28T12:26:43.901Z,18.30
2018-09-28T12:29:25.751Z,18.30
2018-09-28T12:31:58.993Z,18.30
2018-09-28T12:34:31.817Z,18.30
2018-09-28T12:37:04.456Z,18.30
2018-09-28T12:39:41.887Z,18.40
2018-09-28T12:42:15.130Z,18.40
2018-09-28T12:44:48.177Z,18.50
2018-09-28T12:47:22.045Z,18.50
2018-09-28T12:49:54.886Z,18.50
2018-09-28T12:52:30.251Z,18.50
2018-09-28T12:55:05.960Z,18.60
2018-09-28T12:57:39.291Z,18.60
2018-09-28T13:00:17.202Z,18.60
2018-09-28T13:02:51.430Z,18.80
2018-09-28T13:08:11.416Z,18.80
2018-09-28T13:10:49.994Z,18.80
2018-09-28T13:13:27.699Z,18.90
2018-09-28T13:16:00.352Z,18.90
2018-09-28T13:18:34.065Z,18.90
2018-09-28T13:21:15.083Z,19.00
2018-09-28T13:24:00.362Z,19.00
2018-09-28T13:26:33.140Z,19.00
2018-09-28T13:29:14.974Z,19.00
2018-09-28T13:31:50.938Z,19.00
2018-09-28T13:37:12.160Z,19.20
2018-09-28T13:40:04.899Z,19.20
2018-09-28T13:42:48.625Z,19.20
2018-09-28T13:45:24.473Z,19.20
2018-09-28T13:48:06.658Z,19.30
2018-09-28T13:50:44.297Z,19.30
2018-09-28T13:56:27.367Z,19.40
2018-09-28T13:59:05.747Z,19.50
2018-09-28T14:01:41.844Z,19.70
2018-09-28T14:04:39.569Z,19.80
2018-09-28T14:07:17.751Z,20.00
2018-09-28T14:12:45.613Z,20.20
2018-09-28T14:15:29.757Z,20.30
2018-09-28T14:18:15.041Z,20.40
2018-09-28T14:21:04.686Z,20.60
2018-09-28T14:23:44.216Z,20.70
2018-09-28T14:26:22.626Z,20.70
2018-09-28T14:30:32.625Z,20.80
2018-09-28T14:33:12.627Z,20.90
2018-09-28T14:35:58.046Z,21.00
2018-09-28T14:41:25.471Z,21.20
2018-09-28T14:44:00.613Z,21.10
2018-09-28T14:46:40.350Z,21.10
2018-09-28T14:49:22.561Z,21.20
2018-09-28T14:52:07.610Z,21.20
2018-09-28T14:54:48.967Z,21.20
2018-09-28T14:57:27.412Z,21.20
2018-09-28T15:00:04.986Z,21.20
2018-09-28T15:02:52.681Z,21.10
2018-09-28T15:05:37.829Z,21.00
2018-09-28T15:08:16.474Z,21.00
2018-09-28T15:10:51.685Z,21.10
2018-09-28T15:13:35.210Z,21.20
2018-09-28T15:16:10.980Z,21.40
2018-09-28T15:18:47.183Z,21.40
2018-09-28T15:21:22.884Z,21.50
2018-09-28T15:24:00.308Z,21.50
2018-09-28T15:26:37.693Z,21.70
2018-09-28T15:29:13.769Z,21.70
2018-09-28T15:31:54.133Z,21.60
2018-09-28T15:34:31.221Z,21.70
2018-09-28T15:37:06.457Z,21.80
2018-09-28T15:39:43.777Z,21.80
2018-09-28T15:42:19.669Z,21.80
2018-09-28T15:44:57.117Z,21.90
2018-09-28T15:47:33.873Z,22.00
2018-09-28T15:50:13.233Z,22.10
2018-09-28T15:52:50.810Z,22.20
2018-09-28T15:55:26.574Z,22.20
2018-09-28T15:58:08.068Z,22.30
2018-09-28T16:00:45.367Z,22.20
2018-09-28T16:03:29.487Z,22.20
2018-09-28T16:09:02.167Z,22.20
2018-09-28T16:11:38.854Z,22.40
2018-09-28T16:14:14.045Z,22.60
2018-09-28T16:16:53.218Z,22.70
2018-09-28T16:19:28.079Z,22.80
2018-09-28T16:22:06.137Z,22.70
2018-09-28T16:24:39.656Z,22.80
2018-09-28T16:27:20.265Z,22.80
2018-09-28T16:29:55.856Z,22.80
2018-09-28T16:32:30.002Z,22.80
2018-09-28T16:35:04.214Z,22.80
2018-09-28T16:37:38.711Z,22.90
2018-09-28T16:40:11.597Z,23.00
2018-09-28T16:42:48.509Z,23.00
2018-09-28T16:45:23.666Z,23.00
2018-09-28T16:48:00.725Z,23.10
2018-09-28T16:50:33.130Z,23.30
2018-09-28T16:53:11.674Z,23.30
2018-09-28T16:55:44.937Z,23.40
2018-09-28T17:22:46.647Z,23.80
2018-09-28T17:25:19.278Z,23.70
2018-09-28T17:27:58.370Z,23.60
2018-09-28T17:33:50.305Z,23.80
2018-09-28T17:36:23.177Z,23.80
2018-09-28T17:39:00.616Z,23.80
2018-09-28T17:41:34.323Z,23.70
2018-09-28T17:44:17.944Z,23.80
2018-09-28T17:46:54.402Z,23.90
2018-09-28T17:49:33.388Z,23.90
2018-09-28T17:52:08.852Z,23.90
2018-09-28T17:54:45.338Z,24.10
2018-09-28T17:57:20.992Z,24.30
2018-09-28T18:00:12.403Z,24.60
2018-09-28T18:02:45.861Z,24.70
2018-09-28T18:05:26.341Z,24.70
2018-09-28T18:08:05.779Z,24.90
2018-09-28T18:11:02.125Z,24.90
2018-09-28T18:13:40.657Z,25.10
2018-09-28T18:16:23.014Z,25.20
2018-09-28T18:21:54.196Z,25.20
2018-09-28T18:24:35.257Z,25.10
2018-09-28T18:27:10.668Z,25.20
2018-09-28T18:29:49.269Z,25.10
2018-09-28T18:32:24.648Z,25.20
2018-09-28T18:35:05.146Z,25.30
2018-09-28T18:37:39.706Z,25.30
2018-09-28T18:40:24.056Z,25.20
2018-09-28T18:43:11.714Z,25.20
2018-09-28T18:45:50.160Z,25.20
2018-09-28T18:48:23.180Z,25.30
2018-09-28T18:50:57.670Z,25.20
2018-09-28T18:53:35.360Z,25.10
2018-09-28T18:56:08.830Z,25.10
2018-09-28T18:58:42.440Z,25.20
2018-09-28T19:01:19.180Z,25.50
2018-09-28T19:03:52.376Z,25.60
2018-09-28T19:06:30.504Z,25.70
2018-09-28T19:09:07.015Z,25.90
2018-09-28T19:15:17.217Z,26.00
2018-09-28T19:17:53.069Z,26.00
2018-09-28T19:23:27.060Z,26.00
2018-09-28T19:26:04.712Z,26.30
2018-09-28T19:28:46.629Z,26.40
2018-09-28T19:31:27.797Z,26.30
2018-09-28T19:34:11.810Z,26.20
2018-09-28T19:36:54.770Z,26.40
2018-09-28T19:42:48.986Z,26.90
2018-09-28T19:45:31.822Z,27.10
2018-09-28T19:48:09.186Z,27.40
2018-09-28T19:50:55.654Z,27.70
2018-09-28T19:53:35.885Z,27.70
2018-09-28T19:56:24.181Z,27.60
2018-09-28T20:01:44.468Z,27.40
2018-09-28T20:04:21.777Z,27.20
2018-09-28T20:07:00.371Z,26.90
2018-09-28T20:09:40.246Z,26.60
2018-09-28T20:12:16.926Z,26.50
2018-09-28T20:14:52.694Z,26.40
2018-09-28T20:17:33.157Z,26.40
2018-09-28T20:20:12.546Z,26.20
2018-09-28T20:22:57.722Z,25.80
2018-09-28T20:25:43.451Z,25.60
2018-09-28T20:28:34.679Z,25.80
2018-09-28T20:31:15.085Z,26.00
2018-09-28T20:33:54.919Z,26.30
2018-09-28T20:36:33.113Z,26.40
2018-09-28T20:39:15.294Z,26.10
2018-09-28T20:41:52.034Z,26.30
2018-09-28T20:44:29.031Z,26.70
2018-09-28T20:47:08.036Z,27.00
2018-09-28T20:49:41.839Z,26.90
2018-09-28T20:55:04.256Z,27.00
2018-09-28T20:57:39.939Z,27.10
2018-09-28T21:00:16.341Z,27.30
2018-09-28T21:02:53.677Z,27.20
2018-09-28T21:05:35.937Z,27.20
2018-09-28T21:08:12.860Z,26.90
2018-09-28T21:10:49.887Z,26.90
2018-09-28T21:13:25.573Z,26.90
2018-09-28T21:16:10.414Z,26.70
2018-09-28T21:18:49.369Z,26.70
2018-09-28T21:21:31.897Z,26.50
2018-09-28T21:24:04.664Z,26.40
2018-09-28T21:26:42.058Z,26.20
2018-09-28T21:29:23.981Z,26.00
2018-09-28T21:32:00.632Z,25.90
2018-09-28T21:34:35.906Z,25.80
2018-09-28T21:37:24.727Z,25.50
2018-09-28T21:40:14.478Z,25.30
2018-09-28T21:42:52.380Z,25.20
2018-09-28T21:45:31.770Z,25.10
2018-09-28T21:48:07.702Z,25.10
2018-09-28T21:50:47.684Z,25.10
2018-09-28T21:53:29.585Z,25.00
2018-09-28T21:56:08.687Z,25.10
2018-09-28T21:58:53.812Z,25.00
2018-09-28T22:01:38.576Z,25.00
2018-09-28T22:04:13.349Z,25.00
2018-09-28T22:06:50.691Z,25.10
2018-09-28T22:09:25.900Z,25.00
2018-09-28T22:12:12.967Z,25.10
2018-09-28T22:14:48.891Z,25.10
2018-09-28T22:17:23.013Z,25.10
2018-09-28T22:19:56.315Z,25.00
2018-09-28T22:22:28.788Z,24.80
2018-09-28T22:25:01.688Z,24.90
2018-09-28T22:27:34.237Z,24.80
2018-09-28T22:30:14.925Z,24.90
2018-09-28T22:32:47.361Z,24.80
2018-09-28T22:35:19.976Z,24.60
2018-09-28T22:37:52.472Z,24.70
2018-09-28T22:40:25.185Z,24.60
2018-09-28T22:43:02.735Z,24.60
2018-09-28T22:45:39.383Z,24.50
2018-09-28T22:48:12.245Z,24.40
2018-09-28T22:50:45.088Z,24.40
2018-09-28T22:53:17.704Z,24.30
2018-09-28T22:55:50.517Z,24.10
2018-09-28T22:58:23.296Z,24.10
2018-09-28T23:00:56.088Z,24.10
2018-09-28T23:03:28.512Z,24.00
2018-09-28T23:06:01.181Z,24.00
2018-09-28T23:08:33.791Z,23.90
2018-09-28T23:11:12.889Z,23.90
2018-09-28T23:13:45.657Z,23.80
2018-09-28T23:16:18.356Z,23.80
2018-09-28T23:18:51.134Z,23.60
2018-09-28T23:21:28.811Z,23.60
2018-09-28T23:24:01.432Z,23.60
2018-09-28T23:29:24.564Z,23.50
2018-09-28T23:31:57.461Z,23.40
2018-09-28T23:34:30.000Z,23.40
2018-09-28T23:37:03.557Z,23.40
2018-09-28T23:39:36.346Z,23.30
2018-09-28T23:42:08.939Z,23.30
2018-09-28T23:44:41.408Z,23.30
2018-09-28T23:47:13.749Z,23.20
2018-09-28T23:49:52.319Z,23.20
2018-09-28T23:52:24.999Z,23.10
2018-09-28T23:55:02.441Z,23.10
2018-09-28T23:57:35.272Z,23.10
